createdAt,value
2018-03-25T00:00:06.017Z,4.00
2018-03-25T00:02:34.310Z,3.90
2018-03-25T00:05:06.347Z,3.86
2018-03-25T00:07:34.682Z,3.84
2018-03-25T00:10:05.749Z,3.71
2018-03-25T00:12:34.063Z,3.72
2018-03-25T00:15:06.082Z,3.62
2018-03-25T00:17:34.396Z,3.68
2018-03-25T00:20:05.918Z,3.65
2018-03-25T00:22:34.218Z,3.70
2018-03-25T00:25:06.108Z,3.61
2018-03-25T00:27:34.397Z,3.63
2018-03-25T00:30:06.003Z,3.63
2018-03-25T00:32:34.486Z,3.62
2018-03-25T00:35:05.705Z,3.58
2018-03-25T00:37:34.009Z,3.58
2018-03-25T00:40:06.089Z,3.57
2018-03-25T00:42:34.384Z,3.49
2018-03-25T00:45:06.007Z,3.39
2018-03-25T00:47:34.962Z,3.33
2018-03-25T00:50:05.737Z,3.38
2018-03-25T00:52:34.040Z,3.39
2018-03-25T00:55:05.630Z,3.42
2018-03-25T00:57:33.911Z,3.25
2018-03-25T01:00:05.450Z,3.24
2018-03-25T01:02:33.736Z,3.31
2018-03-25T01:05:05.185Z,3.17
2018-03-25T01:07:33.524Z,3.08
2018-03-25T01:10:05.616Z,2.97
2018-03-25T01:12:33.894Z,3.02
2018-03-25T01:15:05.141Z,3.05
2018-03-25T01:17:33.441Z,3.02
2018-03-25T01:20:08.270Z,3.03
2018-03-25T01:22:36.689Z,3.00
2018-03-25T01:25:05.957Z,3.00
2018-03-25T01:27:34.296Z,3.00
2018-03-25T01:30:05.644Z,3.06
2018-03-25T01:32:33.952Z,3.02
2018-03-25T01:35:05.315Z,3.09
2018-03-25T01:37:33.604Z,3.05
2018-03-25T01:40:05.126Z,2.93
2018-03-25T01:42:33.419Z,2.95
2018-03-25T01:45:08.193Z,3.02
2018-03-25T01:47:36.468Z,3.03
2018-03-25T01:50:07.121Z,3.01
2018-03-25T01:52:35.414Z,3.05
2018-03-25T01:55:07.250Z,3.05
2018-03-25T01:57:35.576Z,3.04
2018-03-25T02:00:06.789Z,3.06
2018-03-25T02:02:35.273Z,3.05
2018-03-25T02:05:07.299Z,3.08
2018-03-25T02:07:35.588Z,2.97
2018-03-25T02:10:07.793Z,2.85
2018-03-25T02:12:36.079Z,2.83
2018-03-25T02:15:06.094Z,2.77
2018-03-25T02:17:34.581Z,2.70
2018-03-25T02:20:06.734Z,2.71
2018-03-25T02:22:35.021Z,2.58
2018-03-25T02:25:06.645Z,2.60
2018-03-25T02:27:34.922Z,2.50
2018-03-25T02:30:06.085Z,2.57
2018-03-25T02:32:34.370Z,2.48
2018-03-25T02:35:05.760Z,2.59
2018-03-25T02:37:34.560Z,2.70
2018-03-25T02:40:05.938Z,2.62
2018-03-25T02:42:34.215Z,2.47
2018-03-25T02:45:06.148Z,2.50
2018-03-25T02:47:34.401Z,2.37
2018-03-25T02:50:08.380Z,2.22
2018-03-25T02:52:36.700Z,2.17
2018-03-25T02:55:06.795Z,2.07
2018-03-25T02:57:35.072Z,2.11
2018-03-25T03:00:06.978Z,2.18
2018-03-25T03:02:35.275Z,2.29
2018-03-25T03:05:07.382Z,2.13
2018-03-25T03:07:35.692Z,2.16
2018-03-25T03:10:07.881Z,2.14
2018-03-25T03:12:36.164Z,2.16
2018-03-25T03:15:07.351Z,2.16
2018-03-25T03:17:35.690Z,2.11
2018-03-25T03:20:07.278Z,2.11
2018-03-25T03:22:35.617Z,2.02
2018-03-25T03:25:07.571Z,2.07
2018-03-25T03:27:36.362Z,2.09
2018-03-25T03:30:06.164Z,1.99
2018-03-25T03:32:34.512Z,2.04
2018-03-25T03:35:06.132Z,2.01
2018-03-25T03:37:34.822Z,1.97
2018-03-25T03:40:06.790Z,1.95
2018-03-25T03:42:35.077Z,1.95
2018-03-25T03:45:06.695Z,1.93
2018-03-25T03:47:34.994Z,1.98
2018-03-25T03:50:06.041Z,1.99
2018-03-25T03:52:34.340Z,1.86
2018-03-25T03:55:05.764Z,1.73
2018-03-25T03:57:34.097Z,1.75
2018-03-25T04:00:09.291Z,1.83
2018-03-25T04:02:37.672Z,1.84
2018-03-25T04:05:07.643Z,1.87
2018-03-25T04:07:35.956Z,2.02
2018-03-25T04:10:06.380Z,1.93
2018-03-25T04:12:34.653Z,1.88
2018-03-25T04:15:06.556Z,1.87
2018-03-25T04:17:34.833Z,1.95
2018-03-25T04:20:08.802Z,1.91
2018-03-25T04:22:37.085Z,1.87
2018-03-25T04:25:06.757Z,1.91
2018-03-25T04:27:35.043Z,1.85
2018-03-25T04:30:06.672Z,1.92
2018-03-25T04:32:34.950Z,1.85
2018-03-25T04:35:05.760Z,1.86
2018-03-25T04:37:34.100Z,1.97
2018-03-25T04:40:06.077Z,1.88
2018-03-25T04:42:34.351Z,1.88
2018-03-25T04:45:08.421Z,1.81
2018-03-25T04:47:36.693Z,1.72
2018-03-25T04:50:06.636Z,1.87
2018-03-25T04:52:34.927Z,1.85
2018-03-25T04:55:05.775Z,1.90
2018-03-25T04:57:34.037Z,1.97
2018-03-25T05:00:07.263Z,2.00
2018-03-25T05:02:35.542Z,2.06
2018-03-25T05:05:06.907Z,2.09
2018-03-25T05:07:35.225Z,2.27
2018-03-25T05:10:06.934Z,2.42
2018-03-25T05:12:36.439Z,2.57
2018-03-25T05:15:06.635Z,2.63
2018-03-25T05:17:35.146Z,2.61
2018-03-25T05:20:07.173Z,2.43
2018-03-25T05:22:35.484Z,2.38
2018-03-25T05:25:07.390Z,2.18
2018-03-25T05:27:35.716Z,2.13
2018-03-25T05:30:07.147Z,2.17
2018-03-25T05:32:35.454Z,2.21
2018-03-25T05:35:07.294Z,2.33
2018-03-25T05:37:36.235Z,2.49
2018-03-25T05:40:05.883Z,2.59
2018-03-25T05:42:34.845Z,2.61
2018-03-25T05:45:05.851Z,2.55
2018-03-25T05:47:34.892Z,2.26
2018-03-25T05:50:06.129Z,2.18
2018-03-25T05:52:34.658Z,2.12
2018-03-25T05:55:06.841Z,2.08
2018-03-25T05:57:35.124Z,2.03
2018-03-25T06:00:06.746Z,2.11
2018-03-25T06:02:35.059Z,2.16
2018-03-25T06:05:06.649Z,2.26
2018-03-25T06:07:35.037Z,2.52
2018-03-25T06:10:06.493Z,2.67
2018-03-25T06:12:34.782Z,2.90
2018-03-25T06:15:06.613Z,3.06
2018-03-25T06:17:35.596Z,3.10
2018-03-25T06:20:07.127Z,3.09
2018-03-25T06:22:35.677Z,3.09
2018-03-25T06:25:05.901Z,3.64
2018-03-25T06:27:34.195Z,4.13
2018-03-25T06:30:07.093Z,4.50
2018-03-25T06:32:35.388Z,4.74
2018-03-25T06:35:07.179Z,4.49
2018-03-25T06:37:35.683Z,4.96
2018-03-25T06:40:07.738Z,5.00
2018-03-25T06:42:36.058Z,4.92
2018-03-25T06:45:07.773Z,4.62
2018-03-25T06:47:36.067Z,5.48
2018-03-25T06:50:08.063Z,6.06
2018-03-25T06:52:36.381Z,6.26
2018-03-25T06:55:07.635Z,6.44
2018-03-25T06:57:36.105Z,6.27
2018-03-25T07:00:06.227Z,6.03
2018-03-25T07:02:34.525Z,6.15
2018-03-25T07:05:06.644Z,6.35
2018-03-25T07:07:35.097Z,6.37
2018-03-25T07:10:07.203Z,5.83
2018-03-25T07:12:35.553Z,5.44
2018-03-25T07:15:07.333Z,6.67
2018-03-25T07:17:35.634Z,7.09
2018-03-25T07:20:07.472Z,7.82
2018-03-25T07:22:35.778Z,8.23
2018-03-25T07:25:07.290Z,8.01
2018-03-25T07:27:35.596Z,7.73
2018-03-25T07:30:07.158Z,7.58
2018-03-25T07:32:35.470Z,6.99
2018-03-25T07:35:07.005Z,6.54
2018-03-25T07:37:35.302Z,7.42
2018-03-25T07:40:07.209Z,6.93
2018-03-25T07:42:35.556Z,8.05
2018-03-25T07:45:07.616Z,8.96
2018-03-25T07:47:35.896Z,9.13
2018-03-25T07:50:05.982Z,10.40
2018-03-25T07:52:34.309Z,10.51
2018-03-25T07:55:09.368Z,11.21
2018-03-25T07:57:37.681Z,10.39
2018-03-25T08:00:06.012Z,10.03
2018-03-25T08:02:34.292Z,10.81
2018-03-25T08:05:09.316Z,11.73
2018-03-25T08:07:37.594Z,11.44
2018-03-25T08:10:10.213Z,12.15
2018-03-25T08:12:38.503Z,12.59
2018-03-25T08:15:07.054Z,13.09
2018-03-25T08:17:35.661Z,13.73
2018-03-25T08:20:07.778Z,14.60
2018-03-25T08:22:36.075Z,15.01
2018-03-25T08:25:06.038Z,14.69
2018-03-25T08:27:34.352Z,14.95
2018-03-25T08:30:06.390Z,13.33
2018-03-25T08:32:35.302Z,13.40
2018-03-25T08:35:07.140Z,14.89
2018-03-25T08:37:35.524Z,14.35
2018-03-25T08:40:07.666Z,15.75
2018-03-25T08:42:36.466Z,16.27
2018-03-25T08:45:07.808Z,16.03
2018-03-25T08:47:36.869Z,16.80
2018-03-25T08:50:06.620Z,16.55
2018-03-25T08:52:35.065Z,16.60
2018-03-25T08:55:07.093Z,16.04
2018-03-25T08:57:35.386Z,15.29
2018-03-25T09:00:06.999Z,14.38
2018-03-25T09:02:35.323Z,13.96
2018-03-25T09:05:07.265Z,13.78
2018-03-25T09:07:35.922Z,13.70
2018-03-25T09:10:07.785Z,13.91
2018-03-25T09:12:36.225Z,14.97
2018-03-25T09:15:07.468Z,14.23
2018-03-25T09:17:35.780Z,15.66
2018-03-25T09:20:08.022Z,13.97
2018-03-25T09:22:36.455Z,13.97
2018-03-25T09:25:06.665Z,13.70
2018-03-25T09:27:35.454Z,13.74
2018-03-25T09:30:07.492Z,14.04
2018-03-25T09:32:35.825Z,15.57
2018-03-25T09:35:07.383Z,16.60
2018-03-25T09:37:36.211Z,17.73
2018-03-25T09:40:07.755Z,17.61
2018-03-25T09:42:36.237Z,17.53
2018-03-25T09:45:07.869Z,17.41
2018-03-25T09:47:36.180Z,17.97
2018-03-25T09:50:07.495Z,18.63
2018-03-25T09:52:35.802Z,17.30
2018-03-25T09:55:08.041Z,18.49
2018-03-25T09:57:36.348Z,18.46
2018-03-25T10:00:10.485Z,17.36
2018-03-25T10:02:43.009Z,17.99
2018-03-25T10:05:15.097Z,19.11
2018-03-25T10:07:43.406Z,17.83
2018-03-25T10:10:11.838Z,18.86
2018-03-25T10:12:40.113Z,19.77
2018-03-25T10:15:08.445Z,20.19
2018-03-25T10:17:36.725Z,18.60
2018-03-25T10:20:06.486Z,17.96
2018-03-25T10:22:34.793Z,19.10
2018-03-25T10:25:06.363Z,18.51
2018-03-25T10:27:34.651Z,17.24
2018-03-25T10:30:08.626Z,17.18
2018-03-25T10:32:36.905Z,17.53
2018-03-25T10:35:10.521Z,17.89
2018-03-25T10:37:38.953Z,17.56
2018-03-25T10:40:07.582Z,17.54
2018-03-25T10:42:35.934Z,17.84
2018-03-25T10:45:07.204Z,15.77
2018-03-25T10:47:36.514Z,15.96
2018-03-25T10:50:07.958Z,16.15
2018-03-25T10:52:40.176Z,15.92
2018-03-25T10:55:08.613Z,16.76
2018-03-25T10:57:37.283Z,16.20
2018-03-25T11:00:06.466Z,16.72
2018-03-25T11:02:34.965Z,17.56
2018-03-25T11:05:06.797Z,18.10
2018-03-25T11:07:35.408Z,19.12
2018-03-25T11:10:07.513Z,18.69
2018-03-25T11:12:35.828Z,17.41
2018-03-25T11:15:07.157Z,16.31
2018-03-25T11:17:35.673Z,15.57
2018-03-25T11:20:07.678Z,15.63
2018-03-25T11:22:35.981Z,16.70
2018-03-25T11:25:07.213Z,18.71
2018-03-25T11:27:35.742Z,18.43
2018-03-25T11:30:07.168Z,18.34
2018-03-25T11:32:36.117Z,18.39
2018-03-25T11:35:09.247Z,17.15
2018-03-25T11:37:37.540Z,17.94
2018-03-25T11:40:06.154Z,17.63
2018-03-25T11:42:34.572Z,15.94
2018-03-25T11:45:09.750Z,17.79
2018-03-25T11:47:38.064Z,18.03
2018-03-25T11:50:06.815Z,16.51
2018-03-25T11:52:35.086Z,18.62
2018-03-25T11:55:06.417Z,18.92
2018-03-25T11:57:34.880Z,18.79
2018-03-25T12:00:06.442Z,19.44
2018-03-25T12:02:34.845Z,18.68
2018-03-25T12:05:08.804Z,19.08
2018-03-25T12:07:37.098Z,18.34
2018-03-25T12:10:06.951Z,18.55
2018-03-25T12:12:35.606Z,18.20
2018-03-25T12:15:07.733Z,18.54
2018-03-25T12:17:36.257Z,18.34
2018-03-25T12:20:06.193Z,18.28
2018-03-25T12:22:34.475Z,17.10
2018-03-25T12:25:09.765Z,17.52
2018-03-25T12:27:38.061Z,17.91
2018-03-25T12:30:06.617Z,15.95
2018-03-25T12:32:34.862Z,17.60
2018-03-25T12:35:07.142Z,17.41
2018-03-25T12:37:39.105Z,20.67
2018-03-25T12:40:07.432Z,21.29
2018-03-25T12:42:36.156Z,21.05
2018-03-25T12:45:08.307Z,18.72
2018-03-25T12:47:36.586Z,19.78
2018-03-25T12:50:08.749Z,19.11
2018-03-25T12:52:37.084Z,18.63
2018-03-25T12:55:07.182Z,18.09
2018-03-25T12:57:35.636Z,17.86
2018-03-25T13:00:06.874Z,17.40
2018-03-25T13:02:35.486Z,17.50
2018-03-25T13:05:07.039Z,16.24
2018-03-25T13:07:35.556Z,16.58
2018-03-25T13:10:06.289Z,16.77
2018-03-25T13:12:34.569Z,16.24
2018-03-25T13:15:06.290Z,16.40
2018-03-25T13:17:34.638Z,16.86
2018-03-25T13:20:06.201Z,17.07
2018-03-25T13:22:35.186Z,16.83
2018-03-25T13:25:07.250Z,17.07
2018-03-25T13:27:35.544Z,16.23
2018-03-25T13:30:07.784Z,16.10
2018-03-25T13:32:36.094Z,15.55
2018-03-25T13:35:07.418Z,15.43
2018-03-25T13:37:35.732Z,15.66
2018-03-25T13:40:08.066Z,16.57
2018-03-25T13:42:36.377Z,16.91
2018-03-25T13:45:06.214Z,15.47
2018-03-25T13:47:34.567Z,15.07
2018-03-25T13:50:06.134Z,15.20
2018-03-25T13:52:35.742Z,14.77
2018-03-25T13:55:07.277Z,15.62
2018-03-25T13:57:35.596Z,16.15
2018-03-25T14:00:07.376Z,16.39
2018-03-25T14:02:35.774Z,16.64
2018-03-25T14:05:07.782Z,16.63
2018-03-25T14:07:36.068Z,16.28
2018-03-25T14:10:07.492Z,15.97
2018-03-25T14:12:35.765Z,16.54
2018-03-25T14:15:07.171Z,16.56
2018-03-25T14:17:35.463Z,16.00
2018-03-25T14:20:06.325Z,16.21
2018-03-25T14:22:34.608Z,15.99
2018-03-25T14:25:06.224Z,15.94
2018-03-25T14:27:34.523Z,15.48
2018-03-25T14:30:08.546Z,15.82
2018-03-25T14:32:37.297Z,15.53
2018-03-25T14:35:06.740Z,15.73
2018-03-25T14:37:35.045Z,15.21
2018-03-25T14:40:06.392Z,15.41
2018-03-25T14:42:34.682Z,15.31
2018-03-25T14:45:06.254Z,14.91
2018-03-25T14:47:34.923Z,15.18
2018-03-25T14:50:08.878Z,15.63
2018-03-25T14:52:37.691Z,15.88
2018-03-25T14:55:06.641Z,15.86
2018-03-25T14:57:35.763Z,15.32
2018-03-25T15:00:07.220Z,15.45
2018-03-25T15:02:35.508Z,15.42
2018-03-25T15:05:07.369Z,15.34
2018-03-25T15:07:35.993Z,15.04
2018-03-25T15:10:07.980Z,15.61
2018-03-25T15:12:36.345Z,15.30
2018-03-25T15:15:09.464Z,15.35
2018-03-25T15:17:37.808Z,15.37
2018-03-25T15:20:06.793Z,15.87
2018-03-25T15:22:35.123Z,15.89
2018-03-25T15:25:07.142Z,15.61
2018-03-25T15:27:35.440Z,15.43
2018-03-25T15:30:06.387Z,15.29
2018-03-25T15:32:34.690Z,15.10
2018-03-25T15:35:09.854Z,15.11
2018-03-25T15:37:38.175Z,14.77
2018-03-25T15:40:06.465Z,14.63
2018-03-25T15:42:34.813Z,14.93
2018-03-25T15:45:06.468Z,15.03
2018-03-25T15:47:34.809Z,15.12
2018-03-25T15:50:06.941Z,15.24
2018-03-25T15:52:35.503Z,15.51
2018-03-25T15:55:06.768Z,15.35
2018-03-25T15:57:39.030Z,15.51
2018-03-25T16:00:07.365Z,15.21
2018-03-25T16:02:35.657Z,14.96
2018-03-25T16:05:06.409Z,14.60
2018-03-25T16:07:35.598Z,14.68
2018-03-25T16:10:07.293Z,14.89
2018-03-25T16:12:35.638Z,14.38
2018-03-25T16:15:07.892Z,14.17
2018-03-25T16:17:36.217Z,14.18
2018-03-25T16:20:07.267Z,14.24
2018-03-25T16:22:35.548Z,14.04
2018-03-25T16:25:07.230Z,14.06
2018-03-25T16:27:35.572Z,14.00
2018-03-25T16:30:07.680Z,13.89
2018-03-25T16:32:36.310Z,13.86
2018-03-25T16:35:06.155Z,13.80
2018-03-25T16:37:34.854Z,13.81
2018-03-25T16:40:06.120Z,13.59
2018-03-25T16:42:34.425Z,13.62
2018-03-25T16:45:05.988Z,13.47
2018-03-25T16:47:34.433Z,13.42
2018-03-25T16:50:06.460Z,13.41
2018-03-25T16:52:34.785Z,13.37
2018-03-25T16:55:06.295Z,13.34
2018-03-25T16:57:35.412Z,13.27
2018-03-25T17:00:06.893Z,13.37
2018-03-25T17:02:35.398Z,13.29
2018-03-25T17:05:07.408Z,13.21
2018-03-25T17:07:35.725Z,13.10
2018-03-25T17:10:07.049Z,13.22
2018-03-25T17:12:35.394Z,13.20
2018-03-25T17:15:06.970Z,13.11
2018-03-25T17:17:35.589Z,13.05
2018-03-25T17:20:07.337Z,13.12
2018-03-25T17:22:35.905Z,13.05
2018-03-25T17:25:07.980Z,13.21
2018-03-25T17:27:36.266Z,13.16
2018-03-25T17:30:07.893Z,13.07
2018-03-25T17:32:36.420Z,13.01
2018-03-25T17:35:06.540Z,12.96
2018-03-25T17:37:34.843Z,13.12
2018-03-25T17:40:08.837Z,12.98
2018-03-25T17:42:37.134Z,12.94
2018-03-25T17:45:06.680Z,12.91
2018-03-25T17:47:34.973Z,13.07
2018-03-25T17:50:06.279Z,13.06
2018-03-25T17:52:34.557Z,12.89
2018-03-25T17:55:06.493Z,12.97
2018-03-25T17:57:34.825Z,12.80
2018-03-25T18:00:06.750Z,12.71
2018-03-25T18:02:35.847Z,12.73
2018-03-25T18:05:07.294Z,12.73
2018-03-25T18:07:35.627Z,12.66
2018-03-25T18:10:07.688Z,12.35
2018-03-25T18:12:36.018Z,12.64
2018-03-25T18:15:07.264Z,12.69
2018-03-25T18:17:35.573Z,12.51
2018-03-25T18:20:07.697Z,12.46
2018-03-25T18:22:36.360Z,12.39
2018-03-25T18:25:06.391Z,12.45
2018-03-25T18:27:35.147Z,12.35
2018-03-25T18:30:06.642Z,12.39
2018-03-25T18:32:34.947Z,12.27
2018-03-25T18:35:06.375Z,12.28
2018-03-25T18:37:34.731Z,12.26
2018-03-25T18:40:06.703Z,12.22
2018-03-25T18:42:35.249Z,12.20
2018-03-25T18:45:06.910Z,12.23
2018-03-25T18:47:35.193Z,12.20
2018-03-25T18:50:06.739Z,12.08
2018-03-25T18:52:35.226Z,12.15
2018-03-25T18:55:06.750Z,12.10
2018-03-25T18:57:35.066Z,12.21
2018-03-25T19:00:06.757Z,12.19
2018-03-25T19:02:35.198Z,12.17
2018-03-25T19:05:06.336Z,12.24
2018-03-25T19:07:34.628Z,12.10
2018-03-25T19:10:06.169Z,12.07
2018-03-25T19:12:34.458Z,12.11
2018-03-25T19:15:06.578Z,12.08
2018-03-25T19:17:34.894Z,12.12
2018-03-25T19:20:07.248Z,12.01
2018-03-25T19:22:35.526Z,12.12
2018-03-25T19:25:06.335Z,12.31
2018-03-25T19:27:34.639Z,12.10
2018-03-25T19:30:06.129Z,12.02
2018-03-25T19:32:34.451Z,11.97
2018-03-25T19:35:06.366Z,11.83
2018-03-25T19:37:34.703Z,11.81
2018-03-25T19:40:09.912Z,11.75
2018-03-25T19:42:38.263Z,11.81
2018-03-25T19:45:06.551Z,11.77
2018-03-25T19:47:34.882Z,11.85
2018-03-25T19:50:06.439Z,11.76
2018-03-25T19:52:34.759Z,11.80
2018-03-25T19:55:06.114Z,11.77
2018-03-25T19:57:34.444Z,11.59
2018-03-25T20:00:09.501Z,11.63
2018-03-25T20:02:37.849Z,11.60
2018-03-25T20:05:06.346Z,11.64
2018-03-25T20:07:34.678Z,11.63
2018-03-25T20:10:06.540Z,11.62
2018-03-25T20:15:09.425Z,11.48
2018-03-25T20:17:37.811Z,11.50
2018-03-25T20:20:07.269Z,11.42
2018-03-25T20:22:35.558Z,11.43
2018-03-25T20:25:06.520Z,11.40
2018-03-25T20:27:35.012Z,11.46
2018-03-25T20:30:06.435Z,11.56
2018-03-25T20:32:34.734Z,11.58
2018-03-25T20:35:06.618Z,11.58
2018-03-25T20:37:34.939Z,11.61
2018-03-25T20:40:06.466Z,11.53
2018-03-25T20:42:34.865Z,11.35
2018-03-25T20:45:06.732Z,11.43
2018-03-25T20:47:35.053Z,11.45
2018-03-25T20:50:07.110Z,11.47
2018-03-25T20:52:35.628Z,11.43
2018-03-25T20:55:07.671Z,11.41
2018-03-25T20:57:35.903Z,11.42
2018-03-25T21:00:07.946Z,11.38
2018-03-25T21:02:36.271Z,11.49
2018-03-25T21:05:08.312Z,11.50
2018-03-25T21:07:36.706Z,11.30
2018-03-25T21:10:06.778Z,11.38
2018-03-25T21:12:35.102Z,11.28
2018-03-25T21:15:07.152Z,11.22
2018-03-25T21:17:35.437Z,11.23
2018-03-25T21:20:07.569Z,10.86
2018-03-25T21:22:35.889Z,10.87
2018-03-25T21:25:07.116Z,10.81
2018-03-25T21:27:36.293Z,10.85
2018-03-25T21:30:07.621Z,10.81
2018-03-25T21:32:35.933Z,10.68
2018-03-25T21:35:07.405Z,10.48
2018-03-25T21:37:35.912Z,10.48
2018-03-25T21:40:08.081Z,10.66
2018-03-25T21:42:36.344Z,10.66
2018-03-25T21:45:08.246Z,10.67
2018-03-25T21:47:36.547Z,10.70
2018-03-25T21:50:07.787Z,10.72
2018-03-25T21:52:36.353Z,10.77
2018-03-25T21:55:06.446Z,10.62
2018-03-25T21:57:34.746Z,10.68
2018-03-25T22:00:06.227Z,10.72
2018-03-25T22:02:34.542Z,10.78
2018-03-25T22:05:07.045Z,10.43
2018-03-25T22:07:35.354Z,10.20
2018-03-25T22:10:06.933Z,9.89
2018-03-25T22:12:35.261Z,9.75
2018-03-25T22:15:07.301Z,9.72
2018-03-25T22:17:35.642Z,9.78
2018-03-25T22:20:06.876Z,9.81
2018-03-25T22:22:35.174Z,9.85
2018-03-25T22:25:07.314Z,10.20
2018-03-25T22:27:35.594Z,10.41
2018-03-25T22:30:06.891Z,10.53
2018-03-25T22:32:36.072Z,10.47
2018-03-25T22:35:07.600Z,10.47
2018-03-25T22:37:35.874Z,10.46
2018-03-25T22:40:07.130Z,10.33
2018-03-25T22:42:35.424Z,10.53
2018-03-25T22:45:06.785Z,10.67
2018-03-25T22:47:35.100Z,10.68
2018-03-25T22:50:06.767Z,10.74
2018-03-25T22:52:35.061Z,10.68
2018-03-25T22:55:07.126Z,10.66
2018-03-25T22:57:35.422Z,10.74
2018-03-25T23:00:06.180Z,10.67
2018-03-25T23:02:34.517Z,10.66
2018-03-25T23:05:05.997Z,10.63
2018-03-25T23:07:34.282Z,10.61
2018-03-25T23:10:05.760Z,10.58
2018-03-25T23:12:34.114Z,10.48
2018-03-25T23:15:06.008Z,10.49
2018-03-25T23:17:34.285Z,10.37
2018-03-25T23:20:05.795Z,10.27
2018-03-25T23:22:34.104Z,10.08
2018-03-25T23:25:05.465Z,10.15
2018-03-25T23:27:33.785Z,10.14
2018-03-25T23:30:05.776Z,10.19
2018-03-25T23:32:34.125Z,10.12
2018-03-25T23:35:06.002Z,10.04
2018-03-25T23:37:34.304Z,10.09
2018-03-25T23:40:05.809Z,10.12
2018-03-25T23:42:34.114Z,10.16
2018-03-25T23:45:05.485Z,10.23
2018-03-25T23:47:33.812Z,10.23
2018-03-25T23:50:05.900Z,10.07
2018-03-25T23:52:34.234Z,10.05
2018-03-25T23:55:06.401Z,10.01
2018-03-25T23:57:35.119Z,10.01
